Latest Weather Observations for Sydney Harbour

IDN60801

Issued at 10:35 am EST Tuesday 16 September 2014 (issued every 30 minutes, with the page automatically refreshed every 10 minutes)

About weather observations | Map of weather stations | Latest weather observations for NSW | Other Formats
Station Details ID: 066196 Name: WEDDING CAKE WEST Lat: -33.84 Lon: 151.26 Height: 6.0 m
Data from the previous 72 hours. | See also: Recent months for locations in New South Wales
Date/Time
EST
Temp
°C
App
Temp
°C
Dew
Point
Rel
Hum
%
Delta-T
°C
Wind Press
QNH
hPa
Press
MSL
hPa
Rain
since 9 am
mm
Dir
 
Spd
km/h
Gust
km/h
Spd
kts
Gust
kts
16/10:30am 18.6 - - - - N 24 32 13 17 - - -
16/10:00am 18.3 - - - - NNE 35 48 19 26 - - -
16/09:30am 18.3 - - - - NNE 44 54 24 29 - - -
16/09:00am 18.1 - - - - NNE 39 46 21 25 - - -
16/08:30am 18.4 - - - - NNE 32 43 17 23 - - -
16/08:00am 18.5 - - - - N 22 28 12 15 - - -
16/07:30am 18.1 - - - - NNE 28 33 15 18 - - -
16/07:00am 17.8 - - - - N 24 32 13 17 - - -
16/06:30am 17.1 - - - - N 17 26 9 14 - - -
16/06:00am 17.2 - - - - NW 15 24 8 13 - - -
16/05:30am 17.0 - - - - NNE 32 39 17 21 - - -
16/05:00am 15.6 - - - - N 24 30 13 16 - - -
16/04:30am 16.6 - - - - WNW 13 17 7 9 - - -
16/04:00am 17.9 - - - - NNE 24 32 13 17 - - -
16/03:30am 17.7 - - - - NNE 28 35 15 19 - - -
16/03:00am 17.6 - - - - NNE 32 41 17 22 - - -
16/02:30am 17.6 - - - - NNE 33 41 18 22 - - -
16/02:00am 17.4 - - - - NNE 35 41 19 22 - - -
16/01:30am 17.5 - - - - NNE 32 39 17 21 - - -
16/01:00am 17.2 - - - - NE 20 26 11 14 - - -
16/12:30am 16.8 - - - - N 9 15 5 8 - - -
16/12:00am 17.6 - - - - NNW 17 20 9 11 - - -
 
Date/Time
EST
Temp
°C
App
Temp
°C
Dew
Point
Rel
Hum
%
Delta-T
°C
Wind Press
QNH
hPa
Press
MSL
hPa
Rain
since 9 am
mm
Dir
 
Spd
km/h
Gust
km/h
Spd
kts
Gust
kts
15/11:30pm 17.9 - - - - NNE 20 28 11 15 - - -
15/11:00pm 17.8 - - - - NNE 28 32 15 17 - - -
15/10:30pm 17.8 - - - - NNE 26 32 14 17 - - -
15/10:00pm 17.8 - - - - NNE 26 30 14 16 - - -
15/09:30pm 17.7 - - - - NE 24 30 13 16 - - -
15/09:00pm 17.7 - - - - NE 24 30 13 16 - - -
15/08:30pm 17.7 - - - - NE 28 33 15 18 - - -
15/08:00pm 17.6 - - - - NE 26 30 14 16 - - -
15/07:30pm 17.7 - - - - NE 28 32 15 17 - - -
15/07:00pm 17.7 - - - - NE 26 32 14 17 - - -
15/06:30pm 17.7 - - - - NE 26 33 14 18 - - -
15/06:00pm 17.7 - - - - NE 26 30 14 16 - - -
15/05:30pm 17.7 - - - - NE 24 30 13 16 - - -
15/05:00pm 17.8 - - - - NE 22 26 12 14 - - -
15/04:30pm 17.9 - - - - NE 22 28 12 15 - - -
15/04:00pm 17.9 - - - - NE 24 30 13 16 - - -
15/03:30pm 17.9 - - - - ENE 24 28 13 15 - - -
15/03:00pm 17.9 - - - - ENE 22 26 12 14 - - -
15/02:30pm 17.9 - - - - ENE 20 24 11 13 - - -
15/02:00pm 17.9 - - - - ENE 19 24 10 13 - - -
15/01:30pm 17.9 - - - - ENE 19 22 10 12 - - -
15/01:00pm 17.8 - - - - ENE 17 22 9 12 - - -
15/12:30pm 18.0 - - - - ENE 17 20 9 11 - - -
15/12:00pm 17.6 - - - - ENE 17 20 9 11 - - -
15/11:30am 17.4 - - - - ENE 15 19 8 10 - - -
15/11:00am 17.8 - - - - ENE 15 17 8 9 - - -
15/10:30am 18.0 - - - - ENE 11 15 6 8 - - -
15/10:00am 19.6 - - - - SW 6 7 3 4 - - -
15/09:30am 16.4 - - - - SW 9 11 5 6 - - -
15/09:00am 15.9 - - - - WSW 13 17 7 9 - - -
15/08:30am 15.4 - - - - WSW 15 19 8 10 - - -
15/08:00am 15.5 - - - - W 9 13 5 7 - - -
15/07:30am 14.8 - - - - W 13 15 7 8 - - -
15/07:00am 14.5 - - - - W 11 15 6 8 - - -
15/06:30am 14.4 - - - - W 7 11 4 6 - - -
15/06:00am 14.5 - - - - W 9 13 5 7 - - -
15/05:30am 14.5 - - - - W 11 13 6 7 - - -
15/05:00am 14.6 - - - - WSW 11 13 6 7 - - -
15/04:30am 14.9 - - - - W 15 17 8 9 - - -
15/04:00am 14.8 - - - - W 15 17 8 9 - - -
15/03:30am 15.0 - - - - W 13 15 7 8 - - -
15/03:00am 15.2 - - - - W 13 15 7 8 - - -
15/02:30am 15.6 - - - - WSW 13 15 7 8 - - -
15/02:00am 15.6 - - - - WSW 11 13 6 7 - - -
15/01:30am 15.8 - - - - WSW 13 15 7 8 - - -
15/01:00am 15.8 - - - - WSW 17 20 9 11 - - -
15/12:30am 15.9 - - - - WSW 15 20 8 11 - - -
15/12:00am 15.9 - - - - W 15 19 8 10 - - -
 
Date/Time
EST
Temp
°C
App
Temp
°C
Dew
Point
Rel
Hum
%
Delta-T
°C
Wind Press
QNH
hPa
Press
MSL
hPa
Rain
since 9 am
mm
Dir
 
Spd
km/h
Gust
km/h
Spd
kts
Gust
kts
14/11:30pm 16.1 - - - - W 17 20 9 11 - - -
14/11:00pm 16.6 - - - - WSW 13 17 7 9 - - -
14/10:30pm 16.9 - - - - WSW 17 20 9 11 - - -
14/10:00pm 16.7 - - - - WSW 9 13 5 7 - - -
14/09:30pm 16.8 - - - - S 11 13 6 7 - - -
14/09:00pm 16.8 - - - - S 19 24 10 13 - - -
14/08:30pm 17.0 - - - - S 19 24 10 13 - - -
14/08:00pm 17.2 - - - - S 19 24 10 13 - - -
14/07:30pm 17.4 - - - - S 19 24 10 13 - - -
14/07:00pm 17.3 - - - - SSE 19 24 10 13 - - -
14/06:30pm 17.4 - - - - SSE 17 22 9 12 - - -
14/06:00pm 17.4 - - - - S 20 28 11 15 - - -
14/05:30pm 17.6 - - - - S 22 32 12 17 - - -
14/05:00pm 17.8 - - - - SSE 24 32 13 17 - - -
14/04:30pm 19.0 - - - - SSE 19 24 10 13 - - -
14/04:00pm 19.7 - - - - ESE 13 17 7 9 - - -
14/03:30pm 19.8 - - - - E 13 17 7 9 - - -
14/03:00pm 18.3 - - - - NE 17 19 9 10 - - -
14/02:30pm 18.5 - - - - ENE 17 20 9 11 - - -
14/02:00pm 18.4 - - - - ENE 17 20 9 11 - - -
14/01:30pm 19.0 - - - - E 19 22 10 12 - - -
14/01:00pm 18.5 - - - - ENE 17 17 9 9 - - -
14/12:30pm 18.9 - - - - ENE 15 17 8 9 - - -
14/12:00pm 19.8 - - - - E 9 11 5 6 - - -
14/11:30am 18.6 - - - - E 11 15 6 8 - - -
14/11:00am 17.6 - - - - ENE 13 13 7 7 - - -
14/10:30am 17.3 - - - - CALM 0 7 0 4 - - -
14/10:00am 16.4 - - - - SW 6 7 3 4 - - -
14/09:30am 15.9 - - - - WNW 7 9 4 5 - - -
14/09:00am 16.8 - - - - WNW 6 7 3 4 - - -
14/08:30am 16.3 - - - - CALM 0 0 0 0 - - -
14/08:00am 14.9 - - - - CALM 0 7 0 4 - - -
14/07:30am 14.2 - - - - WNW 4 9 2 5 - - -
14/07:00am 14.2 - - - - WNW 6 7 3 4 - - -
14/06:30am 13.9 - - - - NW 7 9 4 5 - - -
14/06:00am 13.8 - - - - NW 2 6 1 3 - - -
14/05:30am 14.1 - - - - NW 7 9 4 5 - - -
14/05:00am 13.9 - - - - NW 9 11 5 6 - - -
14/04:30am 14.5 - - - - CALM 0 0 0 0 - - -
14/04:00am 14.7 - - - - NW 6 6 3 3 - - -
14/03:30am 14.9 - - - - NW 9 13 5 7 - - -
14/03:00am 15.3 - - - - WNW 13 15 7 8 - - -
14/02:30am 15.5 - - - - NW 11 13 6 7 - - -
14/02:00am 15.9 - - - - WNW 9 11 5 6 - - -
14/01:30am 16.3 - - - - NW 9 15 5 8 - - -
14/01:00am 16.7 - - - - N 15 19 8 10 - - -
14/12:30am 16.7 - - - - N 15 20 8 11 - - -
14/12:00am 16.7 - - - - NNE 20 24 11 13 - - -
 
Date/Time
EST
Temp
°C
App
Temp
°C
Dew
Point
Rel
Hum
%
Delta-T
°C
Wind Press
QNH
hPa
Press
MSL
hPa
Rain
since 9 am
mm
Dir
 
Spd
km/h
Gust
km/h
Spd
kts
Gust
kts
13/11:30pm 16.5 - - - - N 17 20 9 11 - - -
13/11:00pm 16.5 - - - - NNW 13 17 7 9 - - -
13/10:30pm 16.4 - - - - N 11 13 6 7 - - -
13/10:00pm 16.4 - - - - N 9 13 5 7 - - -
13/09:30pm 16.8 - - - - N 17 20 9 11 - - -
13/09:00pm 17.4 - - - - NNE 26 30 14 16 - - -
13/08:30pm 17.4 - - - - NE 24 30 13 16 - - -
13/08:00pm 17.2 - - - - NE 24 26 13 14 - - -
13/07:30pm 17.0 - - - - NE 24 28 13 15 - - -
13/07:00pm 16.9 - - - - NE 22 28 12 15 - - -
13/06:30pm 16.7 - - - - NE 20 24 11 13 - - -
13/06:00pm 16.5 - - - - NE 20 26 11 14 - - -
13/05:30pm 16.2 - - - - NE 20 24 11 13 - - -
13/05:00pm 16.1 - - - - NE 26 28 14 15 - - -
13/04:30pm 16.2 - - - - NE 22 26 12 14 - - -
13/04:00pm 15.9 - - - - NE 22 24 12 13 - - -
13/03:30pm 15.9 - - - - NE 19 20 10 11 - - -
13/03:00pm 15.9 - - - - E 19 22 10 12 - - -
13/02:30pm 15.6 - - - - E 19 24 10 13 - - -
13/02:00pm 15.8 - - - - E 17 20 9 11 - - -
13/01:30pm 16.0 - - - - ESE 19 22 10 12 - - -
13/01:00pm 15.9 - - - - E 17 20 9 11 - - -
13/12:30pm 16.0 - - - - ESE 13 15 7 8 - - -
13/12:00pm 15.3 - - - - SE 11 13 6 7 - - -
13/11:30am 14.9 - - - - ESE 13 17 7 9 - - -
13/11:00am 14.3 - - - - SSW 9 11 5 6 - - -

Other Formats:

Comma delimited format used in spreadsheet applications
http://www.bom.gov.au/fwo/IDN60801/IDN60801.95766.axf

JavaScript Object Notation format (JSON) in row-major order
http://www.bom.gov.au/fwo/IDN60801/IDN60801.95766.json